sensor_id;sensor_type;location;lat;lon;timestamp;pressure;altitude;pressure_sealevel;temperature;humidity
17054;BME280;8643;48.824;11.422;2024-01-27T00:00:27;98489.78;;;-1.39;100.00
17054;BME280;8643;48.824;11.422;2024-01-27T00:02:55;98499.84;;;-1.67;100.00
17054;BME280;8643;48.824;11.422;2024-01-27T00:05:24;98503.97;;;-1.64;100.00
17054;BME280;8643;48.824;11.422;2024-01-27T00:07:58;98510.78;;;-1.68;100.00
17054;BME280;8643;48.824;11.422;2024-01-27T00:10:27;98507.38;;;-1.50;100.00
17054;BME280;8643;48.824;11.422;2024-01-27T00:12:55;98512.28;;;-1.40;100.00
17054;BME280;8643;48.824;11.422;2024-01-27T00:15:24;98517.06;;;-1.42;100.00
17054;BME280;8643;48.824;11.422;2024-01-27T00:17:53;98517.84;;;-1.28;100.00
17054;BME280;8643;48.824;11.422;2024-01-27T00:20:22;98518.13;;;-1.12;100.00
17054;BME280;8643;48.824;11.422;2024-01-27T00:22:51;98517.03;;;-1.04;100.00
17054;BME280;8643;48.824;11.422;2024-01-27T00:25:21;98524.72;;;-1.07;100.00
17054;BME280;8643;48.824;11.422;2024-01-27T00:27:49;98519.47;;;-1.27;100.00
17054;BME280;8643;48.824;11.422;2024-01-27T00:30:18;98522.06;;;-1.46;100.00
17054;BME280;8643;48.824;11.422;2024-01-27T00:32:46;98517.53;;;-1.52;100.00
17054;BME280;8643;48.824;11.422;2024-01-27T00:35:15;98520.56;;;-1.42;100.00
17054;BME280;8643;48.824;11.422;2024-01-27T00:37:44;98521.94;;;-1.26;100.00
17054;BME280;8643;48.824;11.422;2024-01-27T00:40:12;98518.94;;;-1.11;100.00
17054;BME280;8643;48.824;11.422;2024-01-27T00:42:42;98507.66;;;-0.95;100.00
17054;BME280;8643;48.824;11.422;2024-01-27T00:45:11;98511.50;;;-0.84;100.00
17054;BME280;8643;48.824;11.422;2024-01-27T00:47:40;98505.97;;;-0.89;100.00
17054;BME280;8643;48.824;11.422;2024-01-27T00:50:09;98510.06;;;-1.12;100.00
17054;BME280;8643;48.824;11.422;2024-01-27T00:52:38;98503.00;;;-1.38;100.00
17054;BME280;8643;48.824;11.422;2024-01-27T00:55:07;98507.22;;;-1.55;100.00
17054;BME280;8643;48.824;11.422;2024-01-27T00:57:36;98512.41;;;-1.60;100.00
17054;BME280;8643;48.824;11.422;2024-01-27T01:00:09;98523.44;;;-1.75;100.00
17054;BME280;8643;48.824;11.422;2024-01-27T01:02:38;98523.25;;;-1.80;100.00
17054;BME280;8643;48.824;11.422;2024-01-27T01:05:08;98518.09;;;-1.82;100.00
17054;BME280;8643;48.824;11.422;2024-01-27T01:07:36;98517.91;;;-1.87;100.00
17054;BME280;8643;48.824;11.422;2024-01-27T01:10:06;98525.56;;;-1.97;100.00
17054;BME280;8643;48.824;11.422;2024-01-27T01:12:35;98531.81;;;-2.04;100.00
17054;BME280;8643;48.824;11.422;2024-01-27T01:15:06;98540.44;;;-1.95;100.00
17054;BME280;8643;48.824;11.422;2024-01-27T01:17:35;98540.03;;;-1.92;100.00
17054;BME280;8643;48.824;11.422;2024-01-27T01:20:04;98539.00;;;-1.97;100.00
17054;BME280;8643;48.824;11.422;2024-01-27T01:22:33;98538.41;;;-1.99;100.00
17054;BME280;8643;48.824;11.422;2024-01-27T01:25:02;98540.06;;;-1.98;100.00
17054;BME280;8643;48.824;11.422;2024-01-27T01:27:31;98543.56;;;-1.98;100.00
17054;BME280;8643;48.824;11.422;2024-01-27T01:29:59;98541.91;;;-1.92;100.00
17054;BME280;8643;48.824;11.422;2024-01-27T01:32:30;98544.19;;;-2.03;100.00
17054;BME280;8643;48.824;11.422;2024-01-27T01:34:58;98553.09;;;-2.02;100.00
17054;BME280;8643;48.824;11.422;2024-01-27T01:37:26;98555.75;;;-2.09;100.00
17054;BME280;8643;48.824;11.422;2024-01-27T01:39:56;98564.81;;;-1.96;100.00
17054;BME280;8643;48.824;11.422;2024-01-27T01:42:24;98573.09;;;-1.98;100.00
17054;BME280;8643;48.824;11.422;2024-01-27T01:44:53;98577.88;;;-2.07;100.00
17054;BME280;8643;48.824;11.422;2024-01-27T01:47:22;98565.50;;;-2.21;100.00
17054;BME280;8643;48.824;11.422;2024-01-27T01:49:53;98574.16;;;-2.19;100.00
17054;BME280;8643;48.824;11.422;2024-01-27T01:52:22;98571.06;;;-2.23;100.00
17054;BME280;8643;48.824;11.422;2024-01-27T01:54:51;98576.84;;;-2.26;100.00
17054;BME280;8643;48.824;11.422;2024-01-27T01:57:19;98586.16;;;-2.15;100.00
17054;BME280;8643;48.824;11.422;2024-01-27T01:59:48;98594.00;;;-2.13;100.00
17054;BME280;8643;48.824;11.422;2024-01-27T02:02:16;98590.66;;;-2.09;100.00
17054;BME280;8643;48.824;11.422;2024-01-27T02:04:45;98596.59;;;-1.80;100.00
17054;BME280;8643;48.824;11.422;2024-01-27T02:07:16;98585.34;;;-1.57;100.00
17054;BME280;8643;48.824;11.422;2024-01-27T02:09:44;98586.13;;;-1.43;100.00
17054;BME280;8643;48.824;11.422;2024-01-27T02:12:12;98583.38;;;-1.30;100.00
17054;BME280;8643;48.824;11.422;2024-01-27T02:14:41;98581.44;;;-1.22;100.00
17054;BME280;8643;48.824;11.422;2024-01-27T02:17:09;98577.31;;;-1.18;100.00
17054;BME280;8643;48.824;11.422;2024-01-27T02:19:38;98585.41;;;-1.25;100.00
17054;BME280;8643;48.824;11.422;2024-01-27T02:22:06;98578.59;;;-1.27;100.00
17054;BME280;8643;48.824;11.422;2024-01-27T02:24:36;98583.56;;;-1.31;100.00
17054;BME280;8643;48.824;11.422;2024-01-27T02:27:05;98580.69;;;-1.30;100.00
17054;BME280;8643;48.824;11.422;2024-01-27T02:29:33;98578.66;;;-1.41;100.00
17054;BME280;8643;48.824;11.422;2024-01-27T02:32:01;98580.81;;;-1.56;100.00
17054;BME280;8643;48.824;11.422;2024-01-27T02:34:30;98583.50;;;-1.56;100.00
17054;BME280;8643;48.824;11.422;2024-01-27T02:36:59;98586.53;;;-1.46;100.00
17054;BME280;8643;48.824;11.422;2024-01-27T02:39:27;98585.88;;;-1.35;100.00
17054;BME280;8643;48.824;11.422;2024-01-27T02:41:57;98593.72;;;-1.33;100.00
17054;BME280;8643;48.824;11.422;2024-01-27T02:44:25;98594.69;;;-1.21;100.00
17054;BME280;8643;48.824;11.422;2024-01-27T02:46:54;98594.13;;;-1.30;100.00
17054;BME280;8643;48.824;11.422;2024-01-27T02:49:22;98604.25;;;-1.32;100.00
17054;BME280;8643;48.824;11.422;2024-01-27T02:51:51;98606.56;;;-1.35;100.00
17054;BME280;8643;48.824;11.422;2024-01-27T02:54:19;98607.91;;;-1.64;100.00
17054;BME280;8643;48.824;11.422;2024-01-27T02:56:48;98610.66;;;-1.98;100.00
17054;BME280;8643;48.824;11.422;2024-01-27T02:59:18;98618.75;;;-2.18;100.00
17054;BME280;8643;48.824;11.422;2024-01-27T03:01:46;98615.22;;;-2.18;100.00
17054;BME280;8643;48.824;11.422;2024-01-27T03:04:15;98618.75;;;-2.18;100.00
17054;BME280;8643;48.824;11.422;2024-01-27T03:06:44;98616.69;;;-2.16;100.00
17054;BME280;8643;48.824;11.422;2024-01-27T03:09:13;98611.91;;;-2.07;100.00
17054;BME280;8643;48.824;11.422;2024-01-27T03:11:41;98625.75;;;-1.97;100.00
17054;BME280;8643;48.824;11.422;2024-01-27T03:14:09;98628.00;;;-1.87;100.00
17054;BME280;8643;48.824;11.422;2024-01-27T03:16:40;98632.09;;;-1.78;100.00
17054;BME280;8643;48.824;11.422;2024-01-27T03:19:08;98632.72;;;-1.69;100.00
17054;BME280;8643;48.824;11.422;2024-01-27T03:21:37;98633.72;;;-1.63;100.00
17054;BME280;8643;48.824;11.422;2024-01-27T03:24:05;98633.31;;;-1.60;100.00
17054;BME280;8643;48.824;11.422;2024-01-27T03:26:34;98636.63;;;-1.65;100.00
17054;BME280;8643;48.824;11.422;2024-01-27T03:29:02;98644.47;;;-1.63;100.00
17054;BME280;8643;48.824;11.422;2024-01-27T03:31:31;98656.44;;;-1.59;100.00
17054;BME280;8643;48.824;11.422;2024-01-27T03:34:02;98658.31;;;-1.53;100.00
17054;BME280;8643;48.824;11.422;2024-01-27T03:36:31;98651.88;;;-1.52;100.00
17054;BME280;8643;48.824;11.422;2024-01-27T03:39:00;98661.41;;;-1.56;100.00
17054;BME280;8643;48.824;11.422;2024-01-27T03:41:28;98660.78;;;-1.58;100.00
17054;BME280;8643;48.824;11.422;2024-01-27T03:43:57;98654.00;;;-1.68;100.00
17054;BME280;8643;48.824;11.422;2024-01-27T03:46:25;98657.50;;;-1.74;100.00
17054;BME280;8643;48.824;11.422;2024-01-27T03:48:54;98664.94;;;-1.62;100.00
17054;BME280;8643;48.824;11.422;2024-01-27T03:51:24;98664.31;;;-1.58;100.00
17054;BME280;8643;48.824;11.422;2024-01-27T03:53:53;98663.03;;;-1.55;100.00
17054;BME280;8643;48.824;11.422;2024-01-27T03:56:21;98656.88;;;-1.62;100.00
17054;BME280;8643;48.824;11.422;2024-01-27T03:58:50;98660.44;;;-1.82;100.00
17054;BME280;8643;48.824;11.422;2024-01-27T04:01:19;98667.06;;;-1.98;100.00
17054;BME280;8643;48.824;11.422;2024-01-27T04:03:47;98670.78;;;-2.26;100.00
17054;BME280;8643;48.824;11.422;2024-01-27T04:06:15;98672.66;;;-2.40;100.00
17054;BME280;8643;48.824;11.422;2024-01-27T04:08:45;98668.91;;;-2.38;100.00
17054;BME280;8643;48.824;11.422;2024-01-27T04:11:21;98669.72;;;-2.38;100.00
17054;BME280;8643;48.824;11.422;2024-01-27T04:13:50;98668.09;;;-2.46;100.00
17054;BME280;8643;48.824;11.422;2024-01-27T04:16:18;98673.47;;;-2.46;100.00
17054;BME280;8643;48.824;11.422;2024-01-27T04:18:47;98679.03;;;-2.54;100.00
17054;BME280;8643;48.824;11.422;2024-01-27T04:21:15;98673.22;;;-2.64;100.00
17054;BME280;8643;48.824;11.422;2024-01-27T04:23:45;98685.59;;;-2.70;100.00
17054;BME280;8643;48.824;11.422;2024-01-27T04:26:14;98685.78;;;-2.78;100.00
17054;BME280;8643;48.824;11.422;2024-01-27T04:28:42;98688.28;;;-2.77;100.00
17054;BME280;8643;48.824;11.422;2024-01-27T04:31:12;98698.16;;;-2.77;100.00
17054;BME280;8643;48.824;11.422;2024-01-27T04:33:40;98696.94;;;-2.74;100.00
17054;BME280;8643;48.824;11.422;2024-01-27T04:36:09;98704.53;;;-2.85;100.00
17054;BME280;8643;48.824;11.422;2024-01-27T04:38:37;98709.53;;;-2.68;100.00
17054;BME280;8643;48.824;11.422;2024-01-27T04:41:07;98718.78;;;-2.71;100.00
17054;BME280;8643;48.824;11.422;2024-01-27T04:43:36;98708.28;;;-2.72;100.00
17054;BME280;8643;48.824;11.422;2024-01-27T04:46:04;98711.81;;;-2.72;100.00
17054;BME280;8643;48.824;11.422;2024-01-27T04:48:32;98717.16;;;-2.72;100.00
17054;BME280;8643;48.824;11.422;2024-01-27T04:51:01;98709.72;;;-2.77;100.00
17054;BME280;8643;48.824;11.422;2024-01-27T04:53:29;98701.88;;;-2.85;100.00
17054;BME280;8643;48.824;11.422;2024-01-27T04:55:58;98700.19;;;-2.86;100.00
17054;BME280;8643;48.824;11.422;2024-01-27T04:58:28;98699.75;;;-2.96;100.00
17054;BME280;8643;48.824;11.422;2024-01-27T05:00:56;98691.50;;;-3.01;100.00
17054;BME280;8643;48.824;11.422;2024-01-27T05:03:24;98693.91;;;-3.13;100.00
17054;BME280;8643;48.824;11.422;2024-01-27T05:05:53;98694.16;;;-3.08;100.00
17054;BME280;8643;48.824;11.422;2024-01-27T05:08:21;98701.75;;;-3.11;100.00
17054;BME280;8643;48.824;11.422;2024-01-27T05:10:50;98705.69;;;-3.14;100.00
17054;BME280;8643;48.824;11.422;2024-01-27T05:13:22;98715.16;;;-3.11;100.00
17054;BME280;8643;48.824;11.422;2024-01-27T05:15:51;98710.44;;;-3.09;100.00
17054;BME280;8643;48.824;11.422;2024-01-27T05:18:20;98712.25;;;-3.17;100.00
17054;BME280;8643;48.824;11.422;2024-01-27T05:20:49;98717.81;;;-3.18;100.00
17054;BME280;8643;48.824;11.422;2024-01-27T05:23:17;98710.44;;;-3.09;100.00
17054;BME280;8643;48.824;11.422;2024-01-27T05:25:45;98720.97;;;-3.08;100.00
17054;BME280;8643;48.824;11.422;2024-01-27T05:28:13;98717.63;;;-3.10;100.00
17054;BME280;8643;48.824;11.422;2024-01-27T05:30:41;98722.81;;;-3.02;100.00
17054;BME280;8643;48.824;11.422;2024-01-27T05:33:12;98724.84;;;-3.10;100.00
17054;BME280;8643;48.824;11.422;2024-01-27T05:35:40;98725.25;;;-3.14;100.00
17054;BME280;8643;48.824;11.422;2024-01-27T05:38:09;98728.94;;;-3.15;100.00
17054;BME280;8643;48.824;11.422;2024-01-27T05:40:37;98723.66;;;-3.08;100.00
17054;BME280;8643;48.824;11.422;2024-01-27T05:43:08;98727.16;;;-3.01;100.00
17054;BME280;8643;48.824;11.422;2024-01-27T05:45:36;98729.84;;;-3.01;100.00
17054;BME280;8643;48.824;11.422;2024-01-27T05:48:06;98734.00;;;-2.98;100.00
17054;BME280;8643;48.824;11.422;2024-01-27T05:50:36;98748.63;;;-2.94;100.00
17054;BME280;8643;48.824;11.422;2024-01-27T05:53:05;98753.19;;;-2.88;100.00
17054;BME280;8643;48.824;11.422;2024-01-27T05:55:33;98760.25;;;-2.80;100.00
17054;BME280;8643;48.824;11.422;2024-01-27T05:58:02;98759.22;;;-2.72;100.00
17054;BME280;8643;48.824;11.422;2024-01-27T06:00:30;98762.75;;;-2.72;100.00
17054;BME280;8643;48.824;11.422;2024-01-27T06:02:59;98765.84;;;-2.68;100.00
17054;BME280;8643;48.824;11.422;2024-01-27T06:05:27;98770.22;;;-2.61;100.00
17054;BME280;8643;48.824;11.422;2024-01-27T06:07:57;98771.66;;;-2.58;100.00
17054;BME280;8643;48.824;11.422;2024-01-27T06:10:25;98760.31;;;-2.60;100.00
17054;BME280;8643;48.824;11.422;2024-01-27T06:12:54;98764.00;;;-2.61;100.00
17054;BME280;8643;48.824;11.422;2024-01-27T06:15:23;98765.44;;;-2.65;100.00
17054;BME280;8643;48.824;11.422;2024-01-27T06:17:51;98774.50;;;-2.66;100.00
17054;BME280;8643;48.824;11.422;2024-01-27T06:20:20;98765.66;;;-2.60;100.00
17054;BME280;8643;48.824;11.422;2024-01-27T06:22:48;98772.47;;;-2.58;100.00
17054;BME280;8643;48.824;11.422;2024-01-27T06:25:18;98772.91;;;-2.61;100.00
17054;BME280;8643;48.824;11.422;2024-01-27T06:27:47;98786.31;;;-2.54;100.00
17054;BME280;8643;48.824;11.422;2024-01-27T06:30:16;98778.69;;;-2.57;100.00
17054;BME280;8643;48.824;11.422;2024-01-27T06:32:46;98783.66;;;-2.54;100.00
17054;BME280;8643;48.824;11.422;2024-01-27T06:35:15;98791.25;;;-2.58;100.00
17054;BME280;8643;48.824;11.422;2024-01-27T06:37:44;98789.00;;;-2.54;100.00
17054;BME280;8643;48.824;11.422;2024-01-27T06:40:13;98792.91;;;-2.56;100.00
17054;BME280;8643;48.824;11.422;2024-01-27T06:42:43;98786.94;;;-2.52;100.00
17054;BME280;8643;48.824;11.422;2024-01-27T06:45:12;98778.09;;;-2.52;100.00
17054;BME280;8643;48.824;11.422;2024-01-27T06:47:40;98775.78;;;-2.62;100.00
17054;BME280;8643;48.824;11.422;2024-01-27T06:50:09;98793.69;;;-2.69;100.00
17054;BME280;8643;48.824;11.422;2024-01-27T06:52:38;98796.78;;;-2.66;100.00
17054;BME280;8643;48.824;11.422;2024-01-27T06:55:07;98791.41;;;-2.66;100.00
17054;BME280;8643;48.824;11.422;2024-01-27T06:57:38;98789.00;;;-2.61;100.00
17054;BME280;8643;48.824;11.422;2024-01-27T07:00:11;98792.06;;;-2.64;100.00
17054;BME280;8643;48.824;11.422;2024-01-27T07:02:43;98796.56;;;-2.71;100.00
17054;BME280;8643;48.824;11.422;2024-01-27T07:05:11;98798.03;;;-2.68;100.00
17054;BME280;8643;48.824;11.422;2024-01-27T07:07:42;98793.53;;;-2.54;100.00
17054;BME280;8643;48.824;11.422;2024-01-27T07:10:10;98794.19;;;-2.52;100.00
17054;BME280;8643;48.824;11.422;2024-01-27T07:12:39;98786.75;;;-2.50;100.00
17054;BME280;8643;48.824;11.422;2024-01-27T07:15:09;98793.31;;;-2.53;100.00
17054;BME280;8643;48.824;11.422;2024-01-27T07:17:38;98802.84;;;-2.44;100.00
17054;BME280;8643;48.824;11.422;2024-01-27T07:20:09;98804.56;;;-2.29;100.00
17054;BME280;8643;48.824;11.422;2024-01-27T07:22:38;98812.41;;;-2.14;100.00
17054;BME280;8643;48.824;11.422;2024-01-27T07:25:07;98814.28;;;-2.15;100.00
17054;BME280;8643;48.824;11.422;2024-01-27T07:27:37;98815.72;;;-2.06;100.00
17054;BME280;8643;48.824;11.422;2024-01-27T07:30:07;98821.97;;;-1.98;100.00
17054;BME280;8643;48.824;11.422;2024-01-27T07:32:39;98820.91;;;-1.91;100.00
17054;BME280;8643;48.824;11.422;2024-01-27T07:35:08;98820.50;;;-1.81;100.00
17054;BME280;8643;48.824;11.422;2024-01-27T07:37:37;98811.84;;;-1.56;100.00
17054;BME280;8643;48.824;11.422;2024-01-27T07:40:07;98808.94;;;-1.35;100.00
17054;BME280;8643;48.824;11.422;2024-01-27T07:42:36;98814.06;;;-1.13;100.00
17054;BME280;8643;48.824;11.422;2024-01-27T07:45:06;98804.75;;;-1.04;100.00
17054;BME280;8643;48.824;11.422;2024-01-27T07:47:35;98798.72;;;-0.93;100.00
17054;BME280;8643;48.824;11.422;2024-01-27T07:50:07;98793.47;;;-0.74;100.00
17054;BME280;8643;48.824;11.422;2024-01-27T07:52:36;98802.13;;;-0.59;100.00
17054;BME280;8643;48.824;11.422;2024-01-27T07:55:05;98806.41;;;-0.51;100.00
17054;BME280;8643;48.824;11.422;2024-01-27T07:57:34;98803.75;;;-0.58;100.00
17054;BME280;8643;48.824;11.422;2024-01-27T08:00:04;98818.81;;;-0.43;100.00
17054;BME280;8643;48.824;11.422;2024-01-27T08:02:33;98811.97;;;-0.07;100.00
17054;BME280;8643;48.824;11.422;2024-01-27T08:05:05;98813.09;;;0.10;100.00
17054;BME280;8643;48.824;11.422;2024-01-27T08:07:34;98812.69;;;0.39;100.00
17054;BME280;8643;48.824;11.422;2024-01-27T08:10:03;98807.22;;;0.70;100.00
17054;BME280;8643;48.824;11.422;2024-01-27T08:12:32;98820.00;;;1.19;100.00
17054;BME280;8643;48.824;11.422;2024-01-27T08:15:01;98816.94;;;1.82;100.00
17054;BME280;8643;48.824;11.422;2024-01-27T08:17:29;98821.31;;;2.26;100.00
17054;BME280;8643;48.824;11.422;2024-01-27T08:19:58;98820.91;;;2.76;100.00
17054;BME280;8643;48.824;11.422;2024-01-27T08:22:27;98828.19;;;3.23;100.00
17054;BME280;8643;48.824;11.422;2024-01-27T08:24:56;98828.41;;;3.33;100.00
17054;BME280;8643;48.824;11.422;2024-01-27T08:27:25;98826.06;;;4.06;100.00
17054;BME280;8643;48.824;11.422;2024-01-27T08:29:53;98831.59;;;4.79;100.00
17054;BME280;8643;48.824;11.422;2024-01-27T08:32:24;98837.72;;;5.25;100.00
17054;BME280;8643;48.824;11.422;2024-01-27T08:34:53;98840.56;;;5.36;100.00
17054;BME280;8643;48.824;11.422;2024-01-27T08:37:22;98834.00;;;5.31;100.00
17054;BME280;8643;48.824;11.422;2024-01-27T08:39:51;98838.63;;;5.53;100.00
17054;BME280;8643;48.824;11.422;2024-01-27T08:42:20;98841.41;;;5.58;100.00
17054;BME280;8643;48.824;11.422;2024-01-27T08:44:49;98841.41;;;6.02;98.56
17054;BME280;8643;48.824;11.422;2024-01-27T08:47:17;98836.41;;;6.81;99.02
17054;BME280;8643;48.824;11.422;2024-01-27T08:49:46;98831.91;;;6.32;97.78
17054;BME280;8643;48.824;11.422;2024-01-27T08:52:14;98839.28;;;4.48;100.00
17054;BME280;8643;48.824;11.422;2024-01-27T08:54:43;98835.53;;;4.88;100.00
17054;BME280;8643;48.824;11.422;2024-01-27T08:57:12;98833.03;;;4.65;100.00
17054;BME280;8643;48.824;11.422;2024-01-27T08:59:41;98832.34;;;4.57;100.00
17054;BME280;8643;48.824;11.422;2024-01-27T09:02:09;98831.78;;;4.89;100.00
17054;BME280;8643;48.824;11.422;2024-01-27T09:04:38;98828.56;;;5.54;100.00
17054;BME280;8643;48.824;11.422;2024-01-27T09:07:06;98831.78;;;5.50;100.00
17054;BME280;8643;48.824;11.422;2024-01-27T09:09:35;98834.78;;;5.10;100.00
17054;BME280;8643;48.824;11.422;2024-01-27T09:12:05;98830.63;;;5.24;100.00
17054;BME280;8643;48.824;11.422;2024-01-27T09:14:35;98838.78;;;5.24;100.00
17054;BME280;8643;48.824;11.422;2024-01-27T09:17:04;98842.38;;;4.74;100.00
17054;BME280;8643;48.824;11.422;2024-01-27T09:19:32;98835.03;;;4.23;100.00
17054;BME280;8643;48.824;11.422;2024-01-27T09:22:01;98843.06;;;3.61;100.00
17054;BME280;8643;48.824;11.422;2024-01-27T09:24:29;98858.59;;;3.65;100.00
17054;BME280;8643;48.824;11.422;2024-01-27T09:26:58;98860.66;;;4.16;100.00
17054;BME280;8643;48.824;11.422;2024-01-27T09:29:26;98863.56;;;4.26;100.00
17054;BME280;8643;48.824;11.422;2024-01-27T09:31:56;98875.47;;;3.56;100.00
17054;BME280;8643;48.824;11.422;2024-01-27T09:34:24;98874.66;;;2.96;100.00
17054;BME280;8643;48.824;11.422;2024-01-27T09:36:55;98878.94;;;2.38;100.00
17054;BME280;8643;48.824;11.422;2024-01-27T09:39:23;98871.03;;;1.76;100.00
17054;BME280;8643;48.824;11.422;2024-01-27T09:41:52;98873.91;;;1.62;100.00
17054;BME280;8643;48.824;11.422;2024-01-27T09:44:23;98869.25;;;1.51;100.00
17054;BME280;8643;48.824;11.422;2024-01-27T09:46:53;98864.69;;;1.33;100.00
17054;BME280;8643;48.824;11.422;2024-01-27T09:49:26;98869.28;;;1.14;100.00
17054;BME280;8643;48.824;11.422;2024-01-27T09:51:55;98875.78;;;1.06;100.00
17054;BME280;8643;48.824;11.422;2024-01-27T09:54:24;98883.16;;;0.93;100.00
17054;BME280;8643;48.824;11.422;2024-01-27T09:56:56;98887.06;;;0.97;100.00
17054;BME280;8643;48.824;11.422;2024-01-27T09:59:26;98883.66;;;1.08;100.00
17054;BME280;8643;48.824;11.422;2024-01-27T10:01:56;98873.06;;;1.06;100.00
17054;BME280;8643;48.824;11.422;2024-01-27T10:04:28;98885.28;;;1.09;100.00
17054;BME280;8643;48.824;11.422;2024-01-27T10:06:58;98880.66;;;1.16;100.00
17054;BME280;8643;48.824;11.422;2024-01-27T10:09:27;98884.09;;;1.23;100.00
17054;BME280;8643;48.824;11.422;2024-01-27T10:11:56;98872.41;;;1.30;100.00
17054;BME280;8643;48.824;11.422;2024-01-27T10:14:24;98871.09;;;1.39;100.00
17054;BME280;8643;48.824;11.422;2024-01-27T10:16:53;98872.50;;;1.41;100.00
17054;BME280;8643;48.824;11.422;2024-01-27T10:19:22;98865.53;;;1.52;100.00
17054;BME280;8643;48.824;11.422;2024-01-27T10:22:00;98881.28;;;1.55;100.00
17054;BME280;8643;48.824;11.422;2024-01-27T10:24:31;98862.75;;;1.59;100.00
17054;BME280;8643;48.824;11.422;2024-01-27T10:27:01;98868.06;;;1.65;100.00
17054;BME280;8643;48.824;11.422;2024-01-27T10:29:30;98872.66;;;1.65;100.00
17054;BME280;8643;48.824;11.422;2024-01-27T10:32:08;98871.03;;;1.76;100.00
17054;BME280;8643;48.824;11.422;2024-01-27T10:34:37;98867.22;;;1.83;100.00
17054;BME280;8643;48.824;11.422;2024-01-27T10:37:12;98869.31;;;1.81;100.00
17054;BME280;8643;48.824;11.422;2024-01-27T10:39:41;98863.25;;;1.86;100.00
17054;BME280;8643;48.824;11.422;2024-01-27T10:42:10;98861.50;;;1.92;100.00
17054;BME280;8643;48.824;11.422;2024-01-27T10:44:43;98857.75;;;1.93;100.00
17054;BME280;8643;48.824;11.422;2024-01-27T10:47:16;98851.44;;;1.99;100.00
17054;BME280;8643;48.824;11.422;2024-01-27T10:49:48;98858.84;;;2.04;100.00
17054;BME280;8643;48.824;11.422;2024-01-27T10:52:21;98855.22;;;2.10;100.00
17054;BME280;8643;48.824;11.422;2024-01-27T10:54:59;98845.63;;;2.14;100.00
17054;BME280;8643;48.824;11.422;2024-01-27T10:57:31;98855.97;;;2.17;100.00
17054;BME280;8643;48.824;11.422;2024-01-27T11:00:03;98850.56;;;2.17;100.00
17054;BME280;8643;48.824;11.422;2024-01-27T11:02:34;98850.47;;;2.24;100.00
17054;BME280;8643;48.824;11.422;2024-01-27T11:05:07;98838.47;;;2.31;100.00
17054;BME280;8643;48.824;11.422;2024-01-27T11:07:42;98842.59;;;2.34;100.00
17054;BME280;8643;48.824;11.422;2024-01-27T11:10:10;98835.81;;;2.43;100.00
17054;BME280;8643;48.824;11.422;2024-01-27T11:12:39;98838.88;;;2.47;100.00
17054;BME280;8643;48.824;11.422;2024-01-27T11:15:09;98830.88;;;2.52;100.00
17054;BME280;8643;48.824;11.422;2024-01-27T11:17:41;98816.19;;;2.60;100.00
17054;BME280;8643;48.824;11.422;2024-01-27T11:20:11;98829.38;;;2.68;100.00
17054;BME280;8643;48.824;11.422;2024-01-27T11:22:41;98832.44;;;2.71;100.00
17054;BME280;8643;48.824;11.422;2024-01-27T11:25:17;98826.78;;;2.73;100.00
17054;BME280;8643;48.824;11.422;2024-01-27T11:27:46;98827.84;;;2.72;100.00
17054;BME280;8643;48.824;11.422;2024-01-27T11:30:26;98835.25;;;2.77;100.00
17054;BME280;8643;48.824;11.422;2024-01-27T11:33:02;98829.03;;;2.88;100.00
17054;BME280;8643;48.824;11.422;2024-01-27T11:35:32;98827.38;;;2.99;100.00
17054;BME280;8643;48.824;11.422;2024-01-27T11:38:02;98832.78;;;2.99;100.00
17054;BME280;8643;48.824;11.422;2024-01-27T11:40:31;98825.59;;;3.04;100.00
17054;BME280;8643;48.824;11.422;2024-01-27T11:43:01;98831.25;;;3.15;100.00
17054;BME280;8643;48.824;11.422;2024-01-27T11:45:34;98819.47;;;3.09;100.00
17054;BME280;8643;48.824;11.422;2024-01-27T11:48:04;98815.47;;;3.23;100.00
17054;BME280;8643;48.824;11.422;2024-01-27T11:50:34;98809.72;;;3.20;100.00
17054;BME280;8643;48.824;11.422;2024-01-27T11:53:05;98813.00;;;3.22;100.00
17054;BME280;8643;48.824;11.422;2024-01-27T11:55:37;98806.63;;;3.28;100.00
17054;BME280;8643;48.824;11.422;2024-01-27T11:58:08;98818.41;;;3.22;100.00
17054;BME280;8643;48.824;11.422;2024-01-27T12:00:38;98816.38;;;3.29;100.00
17054;BME280;8643;48.824;11.422;2024-01-27T12:03:07;98813.06;;;3.39;100.00
17054;BME280;8643;48.824;11.422;2024-01-27T12:05:36;98816.63;;;3.39;100.00
17054;BME280;8643;48.824;11.422;2024-01-27T12:08:08;98811.84;;;3.58;100.00
17054;BME280;8643;48.824;11.422;2024-01-27T12:10:37;98815.50;;;3.64;100.00
17054;BME280;8643;48.824;11.422;2024-01-27T12:13:05;98817.63;;;3.62;100.00
17054;BME280;8643;48.824;11.422;2024-01-27T12:15:35;98813.44;;;3.71;100.00
17054;BME280;8643;48.824;11.422;2024-01-27T12:18:05;98814.25;;;3.83;100.00
17054;BME280;8643;48.824;11.422;2024-01-27T12:20:34;98815.28;;;3.82;100.00
17054;BME280;8643;48.824;11.422;2024-01-27T12:23:03;98799.97;;;3.88;100.00
17054;BME280;8643;48.824;11.422;2024-01-27T12:25:34;98807.41;;;3.81;100.00
17054;BME280;8643;48.824;11.422;2024-01-27T12:28:03;98800.88;;;3.94;100.00
17054;BME280;8643;48.824;11.422;2024-01-27T12:30:32;98802.13;;;4.03;100.00
17054;BME280;8643;48.824;11.422;2024-01-27T12:33:01;98801.00;;;4.16;100.00
17054;BME280;8643;48.824;11.422;2024-01-27T12:35:30;98802.75;;;4.56;100.00
17054;BME280;8643;48.824;11.422;2024-01-27T12:38:00;98804.50;;;5.62;99.23
17054;BME280;8643;48.824;11.422;2024-01-27T12:40:29;98794.38;;;7.62;90.35
17054;BME280;8643;48.824;11.422;2024-01-27T12:42:59;98802.75;;;9.06;77.32
17054;BME280;8643;48.824;11.422;2024-01-27T12:45:27;98804.91;;;9.90;75.58
17054;BME280;8643;48.824;11.422;2024-01-27T12:47:57;98809.50;;;10.50;70.56
17054;BME280;8643;48.824;11.422;2024-01-27T12:50:26;98812.03;;;11.77;64.50
17054;BME280;8643;48.824;11.422;2024-01-27T12:52:55;98805.31;;;11.88;64.22
17054;BME280;8643;48.824;11.422;2024-01-27T12:55:23;98807.66;;;11.52;60.91
17054;BME280;8643;48.824;11.422;2024-01-27T12:57:52;98802.47;;;11.02;62.67
17054;BME280;8643;48.824;11.422;2024-01-27T13:00:22;98804.91;;;11.76;59.52
17054;BME280;8643;48.824;11.422;2024-01-27T13:02:50;98797.91;;;11.41;57.78
17054;BME280;8643;48.824;11.422;2024-01-27T13:05:19;98793.38;;;10.77;60.94